createdAt,value
2018-05-11T00:01:11.253Z,95.80
2018-05-11T00:05:15.125Z,95.70
2018-05-11T00:09:19.177Z,95.70
2018-05-11T00:13:21.905Z,95.70
2018-05-11T00:17:24.644Z,95.60
2018-05-11T00:21:27.621Z,95.10
2018-05-11T00:25:30.366Z,94.70
2018-05-11T00:29:33.104Z,95.60
2018-05-11T00:33:36.244Z,95.40
2018-05-11T00:37:39.719Z,95.60
2018-05-11T00:41:43.392Z,94.10
2018-05-11T00:45:46.128Z,94.10
2018-05-11T00:49:48.905Z,95.40
2018-05-11T00:53:51.640Z,95.40
2018-05-11T00:57:54.462Z,95.40
2018-05-11T01:01:57.187Z,95.00
2018-05-11T01:06:00.087Z,95.10
2018-05-11T01:10:03.025Z,95.60
2018-05-11T01:14:06.520Z,95.90
2018-05-11T01:18:09.299Z,95.90
2018-05-11T01:22:12.128Z,96.00
2018-05-11T01:26:15.626Z,96.00
2018-05-11T01:30:18.434Z,95.90
2018-05-11T01:34:21.922Z,96.10
2018-05-11T01:38:24.711Z,96.10
2018-05-11T01:42:27.443Z,95.70
2018-05-11T01:46:30.944Z,96.30
2018-05-11T01:50:33.711Z,96.00
2018-05-11T01:54:36.462Z,96.50
2018-05-11T01:58:39.966Z,96.30
2018-05-11T02:02:43.519Z,96.60
2018-05-11T02:06:46.341Z,96.60
2018-05-11T02:10:49.201Z,96.50
2018-05-11T02:14:52.023Z,96.20
2018-05-11T02:18:55.595Z,96.70
2018-05-11T02:22:59.086Z,96.80
2018-05-11T02:27:02.031Z,96.80
2018-05-11T02:31:04.775Z,96.80
2018-05-11T02:35:07.576Z,96.70
2018-05-11T02:39:10.436Z,96.90
2018-05-11T02:43:13.413Z,96.90
2018-05-11T02:47:16.177Z,96.80
2018-05-11T02:51:19.066Z,97.10
2018-05-11T02:55:21.801Z,96.80
2018-05-11T02:59:25.568Z,96.60
2018-05-11T03:03:28.333Z,96.60
2018-05-11T03:07:31.325Z,96.70
2018-05-11T03:11:34.397Z,96.70
2018-05-11T03:15:37.467Z,96.80
2018-05-11T03:19:40.341Z,97.20
2018-05-11T03:23:43.900Z,97.00
2018-05-11T03:27:47.018Z,97.00
2018-05-11T03:31:49.853Z,97.10
2018-05-11T03:35:54.803Z,97.20
2018-05-11T03:39:57.656Z,97.30
2018-05-11T03:44:00.963Z,96.80
2018-05-11T03:48:03.964Z,96.90
2018-05-11T03:52:07.576Z,97.20
2018-05-11T03:56:11.346Z,97.20
2018-05-11T04:00:14.875Z,97.20
2018-05-11T04:04:29.688Z,97.20
2018-05-11T04:08:45.640Z,97.20
2018-05-11T04:12:48.571Z,97.20
2018-05-11T04:16:51.500Z,97.20
2018-05-11T04:20:54.401Z,97.20
2018-05-11T04:24:58.121Z,97.20
2018-05-11T04:29:01.116Z,97.20
2018-05-11T04:33:04.232Z,97.20
2018-05-11T04:37:07.113Z,97.20
2018-05-11T04:41:09.895Z,97.30
2018-05-11T04:45:12.758Z,97.20
2018-05-11T04:49:15.691Z,97.20
2018-05-11T04:53:18.728Z,97.20
2018-05-11T04:57:22.987Z,97.20
2018-05-11T05:01:25.937Z,97.20
2018-05-11T05:05:30.402Z,97.20
2018-05-11T05:09:33.784Z,97.20
2018-05-11T05:13:36.759Z,97.20
2018-05-11T05:17:39.489Z,97.30
2018-05-11T05:21:43.301Z,97.40
2018-05-11T05:25:46.279Z,97.40
2018-05-11T05:29:49.205Z,97.40
2018-05-11T05:33:52.853Z,97.40
2018-05-11T05:37:56.687Z,97.40
2018-05-11T05:42:00.531Z,97.40
2018-05-11T05:46:03.400Z,97.40
2018-05-11T05:50:06.469Z,97.50
2018-05-11T05:54:09.193Z,97.10
2018-05-11T05:58:13.191Z,97.10
2018-05-11T06:02:16.695Z,97.40
2018-05-11T06:06:20.116Z,97.50
2018-05-11T06:10:24.343Z,97.10
2018-05-11T06:14:27.104Z,97.00
2018-05-11T06:18:30.187Z,97.00
2018-05-11T06:22:33.796Z,97.10
2018-05-11T06:26:37.774Z,97.10
2018-05-11T06:30:40.999Z,96.40
2018-05-11T06:34:44.008Z,96.30
2018-05-11T06:38:48.754Z,96.10
2018-05-11T06:42:51.586Z,96.10
2018-05-11T06:46:55.293Z,95.90
2018-05-11T06:50:59.036Z,95.90
2018-05-11T06:55:02.225Z,95.60
2018-05-11T06:59:05.883Z,94.90
2018-05-11T07:03:08.786Z,94.90
2018-05-11T07:07:11.767Z,94.30
2018-05-11T07:11:15.592Z,94.20
2018-05-11T07:15:19.504Z,94.10
2018-05-11T07:19:23.385Z,91.90
2018-05-11T07:23:26.691Z,91.80
2018-05-11T07:27:30.521Z,89.70
2018-05-11T07:31:33.321Z,89.70
2018-05-11T07:35:38.649Z,88.50
2018-05-11T07:39:44.588Z,88.50
2018-05-11T07:43:48.865Z,86.90
2018-05-11T07:47:51.774Z,86.90
2018-05-11T07:51:55.809Z,86.90
2018-05-11T07:55:59.699Z,87.60
2018-05-11T08:00:03.548Z,85.70
2018-05-11T08:04:06.601Z,85.40
2018-05-11T08:08:09.585Z,84.20
2018-05-11T08:12:13.819Z,82.70
2018-05-11T08:16:16.815Z,82.60
2018-05-11T08:20:20.492Z,81.80
2018-05-11T08:24:24.424Z,81.30
2018-05-11T08:28:28.981Z,78.60
2018-05-11T08:32:32.041Z,78.60
2018-05-11T08:36:35.654Z,78.00
2018-05-11T08:40:38.880Z,80.70
2018-05-11T08:44:42.519Z,74.30
2018-05-11T08:48:46.082Z,74.20
2018-05-11T08:52:49.055Z,74.20
2018-05-11T08:56:52.745Z,71.10
2018-05-11T09:00:55.650Z,71.10
2018-05-11T09:04:59.066Z,73.00
2018-05-11T09:09:01.961Z,72.30
2018-05-11T09:13:04.887Z,71.90
2018-05-11T09:17:07.916Z,70.50
2018-05-11T09:21:10.833Z,70.40
2018-05-11T09:25:13.979Z,71.10
2018-05-11T09:29:16.802Z,70.30
2018-05-11T09:33:20.606Z,71.20
2018-05-11T09:37:24.133Z,71.80
2018-05-11T09:41:27.072Z,71.80
2018-05-11T09:45:30.539Z,71.20
2018-05-11T09:49:33.299Z,71.20
2018-05-11T09:53:37.169Z,69.20
2018-05-11T09:57:40.801Z,64.20
2018-05-11T10:01:51.689Z,64.20
2018-05-11T10:05:54.465Z,65.70
2018-05-11T10:09:57.217Z,66.60
2018-05-11T10:14:00.432Z,62.70
2018-05-11T10:18:03.208Z,64.30
2018-05-11T10:22:06.732Z,65.50
2018-05-11T10:26:09.514Z,65.30
2018-05-11T10:30:13.125Z,64.50
2018-05-11T10:34:17.026Z,58.30
2018-05-11T10:38:19.763Z,57.60
2018-05-11T10:42:23.373Z,57.60
2018-05-11T10:46:26.384Z,57.60
2018-05-11T10:50:29.129Z,57.20
2018-05-11T10:54:33.017Z,54.70
2018-05-11T10:58:36.059Z,51.40
2018-05-11T11:02:39.069Z,53.50
2018-05-11T11:06:41.980Z,53.30
2018-05-11T11:10:44.739Z,53.20
2018-05-11T11:14:48.557Z,55.90
2018-05-11T11:18:52.219Z,50.50
2018-05-11T11:22:54.990Z,49.70
2018-05-11T11:26:57.846Z,52.10
2018-05-11T11:31:00.612Z,54.70
2018-05-11T11:35:03.430Z,52.90
2018-05-11T11:39:06.315Z,46.10
2018-05-11T11:43:09.133Z,44.00
2018-05-11T11:47:12.672Z,42.10
2018-05-11T11:51:15.621Z,42.20
2018-05-11T11:55:20.517Z,42.00
2018-05-11T11:59:23.262Z,41.10
2018-05-11T12:03:25.987Z,38.70
2018-05-11T12:07:29.485Z,40.40
2018-05-11T12:11:32.299Z,40.50
2018-05-11T12:15:36.098Z,46.60
2018-05-11T12:19:38.847Z,46.60
2018-05-11T12:23:41.757Z,44.20
2018-05-11T12:27:44.473Z,42.20
2018-05-11T12:31:47.197Z,40.80
2018-05-11T12:35:50.038Z,41.50
2018-05-11T12:39:52.873Z,41.90
2018-05-11T12:43:55.607Z,40.20
2018-05-11T12:47:59.174Z,42.40
2018-05-11T12:52:01.944Z,42.40
2018-05-11T12:56:08.355Z,45.60
2018-05-11T13:00:12.161Z,48.10
2018-05-11T13:04:14.937Z,48.10
2018-05-11T13:08:17.739Z,48.30
2018-05-11T13:12:20.466Z,49.50
2018-05-11T13:16:23.364Z,47.70
2018-05-11T13:20:27.608Z,40.40
2018-05-11T13:24:30.594Z,40.40
2018-05-11T13:28:33.860Z,37.50
2018-05-11T13:32:39.963Z,37.70
2018-05-11T13:36:45.803Z,38.00
2018-05-11T13:40:52.951Z,45.40
2018-05-11T13:44:59.395Z,49.20
2018-05-11T13:49:04.735Z,48.30
2018-05-11T13:53:10.728Z,50.90
2018-05-11T13:57:16.809Z,51.90
2018-05-11T14:01:22.767Z,54.70
2018-05-11T14:05:28.813Z,55.40
2018-05-11T14:09:35.245Z,56.90
2018-05-11T14:13:41.329Z,53.90
2018-05-11T14:17:44.731Z,56.90
2018-05-11T14:21:48.324Z,41.10
2018-05-11T14:25:51.063Z,40.30
2018-05-11T14:29:53.946Z,39.20
2018-05-11T14:33:56.779Z,39.90
2018-05-11T14:37:59.562Z,43.70
2018-05-11T14:42:02.347Z,48.90
2018-05-11T14:46:05.087Z,54.00
2018-05-11T14:50:08.095Z,57.10
2018-05-11T14:54:10.889Z,59.00
2018-05-11T14:58:13.734Z,59.40
2018-05-11T15:02:16.573Z,60.80
2018-05-11T15:06:20.069Z,62.60
2018-05-11T15:10:22.892Z,61.90
2018-05-11T15:14:26.400Z,58.50
2018-05-11T15:18:29.962Z,58.60
2018-05-11T15:22:32.689Z,58.60
2018-05-11T15:26:35.430Z,59.00
2018-05-11T15:30:38.252Z,59.70
2018-05-11T15:34:40.971Z,60.30
2018-05-11T15:38:44.324Z,60.60
2018-05-11T15:42:47.075Z,61.50
2018-05-11T15:46:49.790Z,60.40
2018-05-11T15:50:52.528Z,61.40
2018-05-11T15:54:55.458Z,61.00
2018-05-11T15:58:58.230Z,61.40
2018-05-11T16:03:02.319Z,61.50
2018-05-11T16:07:05.830Z,63.90
2018-05-11T16:11:09.589Z,63.40
2018-05-11T16:15:12.335Z,63.70
2018-05-11T16:19:15.092Z,60.30
2018-05-11T16:23:18.018Z,56.70
2018-05-11T16:27:20.837Z,55.20
2018-05-11T16:31:23.728Z,56.10
2018-05-11T16:35:26.533Z,57.20
2018-05-11T16:39:29.281Z,61.30
2018-05-11T16:43:32.122Z,60.00
2018-05-11T16:47:34.838Z,64.40
2018-05-11T16:51:37.603Z,66.40
2018-05-11T16:55:40.507Z,64.50
2018-05-11T16:59:43.212Z,66.20
2018-05-11T17:03:46.135Z,68.20
2018-05-11T17:07:48.841Z,70.50
2018-05-11T17:11:51.595Z,70.90
2018-05-11T17:15:54.479Z,68.90
2018-05-11T17:19:57.245Z,71.00
2018-05-11T17:24:01.885Z,70.90
2018-05-11T17:28:05.396Z,71.80
2018-05-11T17:32:08.977Z,74.00
2018-05-11T17:36:11.790Z,74.00
2018-05-11T17:40:14.502Z,75.50
2018-05-11T17:44:18.053Z,77.60
2018-05-11T17:48:20.765Z,77.40
2018-05-11T17:52:23.704Z,79.30
2018-05-11T17:56:26.532Z,81.00
2018-05-11T18:00:29.267Z,82.90
2018-05-11T18:04:32.069Z,82.60
2018-05-11T18:08:34.906Z,85.30
2018-05-11T18:12:38.427Z,86.90
2018-05-11T18:16:41.998Z,88.10
2018-05-11T18:20:45.520Z,87.60
2018-05-11T18:24:48.366Z,87.90
2018-05-11T18:28:51.106Z,88.70
2018-05-11T18:32:53.842Z,90.10
2018-05-11T18:36:57.419Z,90.60
2018-05-11T18:41:00.148Z,90.60
2018-05-11T18:45:03.350Z,90.80
2018-05-11T18:49:06.244Z,91.50
2018-05-11T18:53:09.247Z,91.70
2018-05-11T18:57:12.193Z,92.10
2018-05-11T19:01:14.983Z,92.00
2018-05-11T19:05:17.719Z,92.50
2018-05-11T19:09:20.688Z,92.50
2018-05-11T19:13:23.450Z,92.60
2018-05-11T19:17:27.293Z,93.10
2018-05-11T19:21:30.949Z,93.20
2018-05-11T19:25:33.721Z,93.20
2018-05-11T19:29:38.087Z,93.50
2018-05-11T19:33:40.926Z,93.70
2018-05-11T19:37:44.722Z,94.00
2018-05-11T19:41:47.633Z,94.00
2018-05-11T19:45:50.436Z,94.20
2018-05-11T19:49:53.395Z,94.50
2018-05-11T19:53:56.207Z,94.40
2018-05-11T19:58:00.127Z,94.50
2018-05-11T20:02:02.890Z,94.70
2018-05-11T20:06:05.705Z,94.70
2018-05-11T20:10:09.659Z,94.90
2018-05-11T20:14:12.502Z,94.70
2018-05-11T20:18:16.586Z,95.00
2018-05-11T20:22:19.489Z,95.00
2018-05-11T20:26:22.410Z,94.90
2018-05-11T20:30:26.171Z,94.90
2018-05-11T20:34:29.504Z,94.90
2018-05-11T20:38:32.568Z,95.00
2018-05-11T20:42:36.139Z,95.20
2018-05-11T20:46:38.867Z,95.20
2018-05-11T20:50:42.053Z,95.20
2018-05-11T20:54:44.765Z,95.10
2018-05-11T20:58:50.059Z,95.50
2018-05-11T21:02:55.154Z,95.50
2018-05-11T21:06:59.093Z,95.40
2018-05-11T21:11:01.970Z,95.40
2018-05-11T21:15:05.533Z,95.40
2018-05-11T21:19:08.247Z,95.40
2018-05-11T21:23:11.022Z,95.50
2018-05-11T21:27:16.075Z,95.60
2018-05-11T21:31:21.383Z,95.50
2018-05-11T21:35:25.504Z,95.70
2018-05-11T21:39:30.406Z,95.70
2018-05-11T21:43:33.537Z,95.70
2018-05-11T21:47:36.428Z,95.90
2018-05-11T21:51:39.457Z,95.80
2018-05-11T21:55:42.152Z,95.70
2018-05-11T21:59:44.879Z,95.70
2018-05-11T22:03:47.691Z,95.90
2018-05-11T22:07:51.167Z,95.90
2018-05-11T22:11:53.898Z,95.90
2018-05-11T22:15:57.467Z,95.70
2018-05-11T22:20:01.360Z,95.70
2018-05-11T22:24:04.106Z,95.80
2018-05-11T22:28:07.048Z,95.90
2018-05-11T22:32:09.784Z,95.80
2018-05-11T22:36:12.599Z,96.00
2018-05-11T22:40:15.329Z,95.90
2018-05-11T22:44:19.104Z,96.00
2018-05-11T22:48:21.837Z,95.90
2018-05-11T22:52:24.646Z,96.00
2018-05-11T22:56:28.196Z,96.10
2018-05-11T23:00:32.867Z,96.10
2018-05-11T23:04:35.619Z,96.10
2018-05-11T23:08:38.454Z,96.10
2018-05-11T23:12:41.158Z,96.10
2018-05-11T23:16:43.953Z,96.10
2018-05-11T23:20:46.847Z,96.10
2018-05-11T23:24:49.559Z,96.10
2018-05-11T23:28:52.346Z,96.10
2018-05-11T23:32:55.191Z,96.00
2018-05-11T23:36:58.691Z,96.10
2018-05-11T23:41:02.198Z,96.10
2018-05-11T23:45:04.991Z,96.00
2018-05-11T23:49:07.767Z,96.00
2018-05-11T23:53:10.516Z,96.00
2018-05-11T23:57:14.110Z,96.00
